createdAt,value
2018-08-19T00:01:44.890Z,8.20
2018-08-19T00:06:48.238Z,7.90
2018-08-19T00:11:51.538Z,8.57
2018-08-19T00:17:07.905Z,8.87
2018-08-19T00:22:11.203Z,9.00
2018-08-19T00:27:14.450Z,9.40
2018-08-19T00:32:17.652Z,9.03
2018-08-19T00:37:20.858Z,9.37
2018-08-19T00:42:24.127Z,8.60
2018-08-19T00:47:27.386Z,9.50
2018-08-19T00:52:30.638Z,9.00
2018-08-19T00:57:33.847Z,9.10
2018-08-19T01:02:37.070Z,9.37
2018-08-19T01:07:40.381Z,9.30
2018-08-19T01:12:43.684Z,9.20
2018-08-19T01:17:46.927Z,9.43
2018-08-19T01:22:50.167Z,8.63
2018-08-19T01:27:53.502Z,9.83
2018-08-19T01:32:56.723Z,9.07
2018-08-19T01:38:00.082Z,9.40
2018-08-19T01:43:05.236Z,9.50
2018-08-19T01:48:08.730Z,10.37
2018-08-19T01:53:11.939Z,9.37
2018-08-19T01:58:15.144Z,9.23
2018-08-19T02:03:18.362Z,9.33
2018-08-19T02:08:21.674Z,9.20
2018-08-19T02:13:24.906Z,9.83
2018-08-19T02:18:28.096Z,9.23
2018-08-19T02:23:31.307Z,9.03
2018-08-19T02:28:34.791Z,9.57
2018-08-19T02:33:38.002Z,8.93
2018-08-19T02:38:41.233Z,9.80
2018-08-19T02:43:59.926Z,9.40
2018-08-19T02:49:03.258Z,8.70
2018-08-19T02:54:06.526Z,9.17
2018-08-19T02:59:10.083Z,9.77
2018-08-19T03:04:13.358Z,9.10
2018-08-19T03:09:16.594Z,9.17
2018-08-19T03:14:19.926Z,8.50
2018-08-19T03:19:23.190Z,8.83
2018-08-19T03:24:34.662Z,8.87
2018-08-19T03:29:43.379Z,8.43
2018-08-19T03:34:46.652Z,8.73
2018-08-19T03:39:50.157Z,9.43
2018-08-19T03:44:53.423Z,9.73
2018-08-19T03:49:56.715Z,8.80
2018-08-19T03:54:59.971Z,9.53
2018-08-19T04:00:04.586Z,8.97
2018-08-19T04:05:07.837Z,8.83
2018-08-19T04:10:11.332Z,8.90
2018-08-19T04:15:14.587Z,8.23
2018-08-19T04:20:21.194Z,8.10
2018-08-19T04:25:29.703Z,7.73
2018-08-19T04:30:32.968Z,7.50
2018-08-19T04:35:36.218Z,8.07
2018-08-19T04:40:46.435Z,8.07
2018-08-19T04:45:49.766Z,7.53
2018-08-19T04:50:54.220Z,7.57
2018-08-19T04:55:57.486Z,6.57
2018-08-19T05:01:00.864Z,8.00
2018-08-19T05:06:04.102Z,7.00
2018-08-19T05:11:07.329Z,7.37
2018-08-19T05:16:15.118Z,7.60
2018-08-19T05:21:18.442Z,7.90
2018-08-19T05:26:21.689Z,8.27
2018-08-19T05:31:25.221Z,7.73
2018-08-19T05:36:32.654Z,8.67
2018-08-19T05:41:36.929Z,7.40
2018-08-19T05:46:40.295Z,8.00
2018-08-19T05:51:44.583Z,8.17
2018-08-19T05:56:48.067Z,8.20
2018-08-19T06:01:52.385Z,7.83
2018-08-19T06:07:04.541Z,8.17
2018-08-19T06:12:11.693Z,8.63
2018-08-19T06:17:15.200Z,8.17
2018-08-19T06:22:20.497Z,8.27
2018-08-19T06:27:24.341Z,7.97
2018-08-19T06:32:31.706Z,7.40
2018-08-19T06:37:37.176Z,8.07
2018-08-19T06:42:47.490Z,7.90
2018-08-19T06:47:53.827Z,7.47
2018-08-19T06:52:57.199Z,8.00
2018-08-19T06:58:00.818Z,8.20
2018-08-19T07:03:09.875Z,8.53
2018-08-19T07:08:13.175Z,7.00
2018-08-19T07:13:16.478Z,6.20
2018-08-19T07:18:19.739Z,6.17
2018-08-19T07:23:25.074Z,6.73
2018-08-19T07:28:28.339Z,6.10
2018-08-19T07:33:33.281Z,5.43
2018-08-19T07:38:36.534Z,5.50
2018-08-19T07:43:39.814Z,4.30
2018-08-19T07:48:43.181Z,4.67
2018-08-19T07:53:47.068Z,4.10
2018-08-19T07:59:03.031Z,4.43
2018-08-19T08:04:07.262Z,4.70
2018-08-19T08:09:10.758Z,4.40
2018-08-19T08:14:14.235Z,4.03
2018-08-19T08:19:17.812Z,4.43
2018-08-19T08:24:27.834Z,4.23
2018-08-19T08:29:31.034Z,4.83
2018-08-19T08:34:34.242Z,4.80
2018-08-19T08:39:43.357Z,4.57
2018-08-19T08:44:47.661Z,4.37
2018-08-19T08:49:50.930Z,4.03
2018-08-19T08:55:02.446Z,4.17
2018-08-19T09:00:07.410Z,4.50
2018-08-19T09:05:12.351Z,4.77
2018-08-19T09:10:32.019Z,4.53
2018-08-19T09:15:35.434Z,5.07
2018-08-19T09:20:49.315Z,4.93
2018-08-19T09:25:52.486Z,4.97
2018-08-19T09:30:55.818Z,5.80
2018-08-19T09:35:59.874Z,5.93
2018-08-19T09:41:03.137Z,6.47
2018-08-19T09:46:10.078Z,7.27
2018-08-19T09:51:15.279Z,7.47
2018-08-19T09:56:21.134Z,7.40
2018-08-19T10:01:30.844Z,7.83
2018-08-19T10:06:36.507Z,7.77
2018-08-19T10:11:41.977Z,7.70
2018-08-19T10:16:46.480Z,7.50
2018-08-19T10:21:50.922Z,7.30
2018-08-19T10:26:54.284Z,8.27
2018-08-19T10:32:01.554Z,7.43
2018-08-19T10:37:05.363Z,6.93
2018-08-19T10:42:21.410Z,6.80
2018-08-19T10:47:25.632Z,6.83
2018-08-19T10:52:31.196Z,7.87
2018-08-19T10:57:35.585Z,6.63
2018-08-19T11:02:38.867Z,7.60
2018-08-19T11:07:42.175Z,7.90
2018-08-19T11:12:46.486Z,6.93
2018-08-19T11:17:50.727Z,7.93
2018-08-19T11:22:56.645Z,7.93
2018-08-19T11:27:59.927Z,7.70
2018-08-19T11:33:04.035Z,8.30
2018-08-19T11:38:07.459Z,8.50
2018-08-19T11:43:16.630Z,7.90
2018-08-19T11:48:20.086Z,8.60
2018-08-19T11:53:23.596Z,8.10
2018-08-19T11:58:48.562Z,8.40
2018-08-19T12:04:00.894Z,8.67
2018-08-19T12:09:07.222Z,7.93
2018-08-19T12:14:13.159Z,7.30
2018-08-19T12:19:35.295Z,8.40
2018-08-19T12:24:46.604Z,7.23
2018-08-19T12:30:06.787Z,7.00
2018-08-19T12:35:10.019Z,7.30
2018-08-19T12:40:13.218Z,6.90
2018-08-19T12:45:16.390Z,6.67
2018-08-19T12:50:19.709Z,6.50
2018-08-19T12:55:22.871Z,6.90
2018-08-19T13:00:27.139Z,6.63
2018-08-19T13:05:32.015Z,6.50
2018-08-19T13:10:41.727Z,5.93
2018-08-19T13:15:45.710Z,7.20
2018-08-19T13:21:04.802Z,5.73
2018-08-19T13:26:08.120Z,5.50
2018-08-19T13:31:15.138Z,5.47
2018-08-19T13:36:32.741Z,5.03
2018-08-19T13:41:36.385Z,5.83
2018-08-19T13:46:40.321Z,5.57
2018-08-19T13:51:43.562Z,5.03
2018-08-19T13:56:51.693Z,5.40
2018-08-19T14:01:57.750Z,5.90
2018-08-19T14:07:01.459Z,6.37
2018-08-19T14:12:05.130Z,5.87
2018-08-19T14:17:08.385Z,5.80
2018-08-19T14:22:11.590Z,5.50
2018-08-19T14:27:15.124Z,5.93
2018-08-19T14:32:30.466Z,5.40
2018-08-19T14:37:33.981Z,6.00
2018-08-19T14:42:37.610Z,7.07
2018-08-19T14:47:40.829Z,6.27
2018-08-19T14:52:44.049Z,6.03
2018-08-19T14:57:47.245Z,5.60
2018-08-19T15:02:50.707Z,7.00
2018-08-19T15:07:53.876Z,6.27
2018-08-19T15:12:57.055Z,6.50
2018-08-19T15:18:02.249Z,6.83
2018-08-19T15:23:15.992Z,6.30
2018-08-19T15:28:20.822Z,7.00
2018-08-19T15:33:24.022Z,6.07
2018-08-19T15:38:29.202Z,6.37
2018-08-19T15:43:35.478Z,6.33
2018-08-19T15:48:38.658Z,6.43
2018-08-19T15:53:42.946Z,6.57
2018-08-19T15:58:49.808Z,6.53
2018-08-19T16:03:58.599Z,6.40
2018-08-19T16:09:01.980Z,6.40
2018-08-19T16:14:17.719Z,7.03
2018-08-19T16:19:21.001Z,6.90
2018-08-19T16:24:25.562Z,7.43
2018-08-19T16:29:28.772Z,7.40
2018-08-19T16:34:32.009Z,7.73
2018-08-19T16:39:35.161Z,7.57
2018-08-19T16:44:38.529Z,7.83
2018-08-19T16:49:41.646Z,7.93
2018-08-19T16:54:46.018Z,7.90
2018-08-19T16:59:49.272Z,7.97
2018-08-19T17:04:52.583Z,7.77
2018-08-19T17:09:57.871Z,9.00
2018-08-19T17:15:01.105Z,8.97
2018-08-19T17:20:04.423Z,8.57
2018-08-19T17:25:08.706Z,9.73
2018-08-19T17:30:16.240Z,8.37
2018-08-19T17:35:19.542Z,8.87
2018-08-19T17:40:23.303Z,9.30
2018-08-19T17:45:27.012Z,8.40
2018-08-19T17:50:30.726Z,9.23
2018-08-19T17:55:34.342Z,9.43
2018-08-19T18:00:37.527Z,10.67
2018-08-19T18:05:40.842Z,9.93
2018-08-19T18:10:51.898Z,9.67
2018-08-19T18:15:56.154Z,9.73
2018-08-19T18:21:02.882Z,10.33
2018-08-19T18:26:06.437Z,10.13
2018-08-19T18:31:22.459Z,9.80
2018-08-19T18:36:26.781Z,10.53
2018-08-19T18:41:39.906Z,10.03
2018-08-19T18:46:47.010Z,10.03
2018-08-19T18:51:52.359Z,10.20
2018-08-19T18:56:55.596Z,11.20
2018-08-19T19:02:00.653Z,11.03
2018-08-19T19:07:03.927Z,10.80
2018-08-19T19:12:07.142Z,10.43
2018-08-19T19:17:10.390Z,10.57
2018-08-19T19:22:14.634Z,11.57
2018-08-19T19:27:18.920Z,11.37
2018-08-19T19:32:24.606Z,11.03
2018-08-19T19:37:28.910Z,11.50
2018-08-19T19:42:38.604Z,11.43
2018-08-19T19:47:41.933Z,11.40
2018-08-19T19:52:57.703Z,10.73
2018-08-19T19:58:00.929Z,11.60
2018-08-19T20:03:04.142Z,11.33
2018-08-19T20:08:07.458Z,10.93
2018-08-19T20:13:10.704Z,11.70
2018-08-19T20:18:13.930Z,11.37
2018-08-19T20:23:22.634Z,11.50
2018-08-19T20:28:25.845Z,11.43
2018-08-19T20:33:29.335Z,12.47
2018-08-19T20:38:32.573Z,11.17
2018-08-19T20:43:35.782Z,11.53
2018-08-19T20:48:39.054Z,11.77
2018-08-19T20:53:42.306Z,12.03
2018-08-19T20:58:45.613Z,11.77
2018-08-19T21:03:48.838Z,11.40
2018-08-19T21:08:53.094Z,11.77
2018-08-19T21:13:56.313Z,12.80
2018-08-19T21:19:00.862Z,12.97
2018-08-19T21:24:04.143Z,13.10
2018-08-19T21:29:07.330Z,13.13
2018-08-19T21:34:10.794Z,13.20
2018-08-19T21:39:17.470Z,13.23
2018-08-19T21:44:20.989Z,13.57
2018-08-19T21:49:24.198Z,14.07
2018-08-19T21:54:27.474Z,13.70
2018-08-19T21:59:32.762Z,13.97
2018-08-19T22:04:35.967Z,14.53
2018-08-19T22:09:39.160Z,13.37
2018-08-19T22:14:44.460Z,14.27
2018-08-19T22:19:47.746Z,13.87
2018-08-19T22:24:51.035Z,13.30
2018-08-19T22:29:54.241Z,15.20
2018-08-19T22:34:57.483Z,14.10
2018-08-19T22:40:00.736Z,14.30
2018-08-19T22:45:04.114Z,14.73
2018-08-19T22:50:07.368Z,14.47
2018-08-19T22:55:10.642Z,13.80
2018-08-19T23:00:18.128Z,14.33
2018-08-19T23:05:21.353Z,13.67
2018-08-19T23:10:24.532Z,13.50
2018-08-19T23:15:36.610Z,12.87
2018-08-19T23:20:39.846Z,13.60
2018-08-19T23:25:43.061Z,12.50
2018-08-19T23:30:47.377Z,13.33
2018-08-19T23:35:50.598Z,13.00
2018-08-19T23:40:53.783Z,11.83
2018-08-19T23:45:57.022Z,11.63
2018-08-19T23:51:00.240Z,13.43
2018-08-19T23:56:03.426Z,12.63
